Terminal Aerodrome Forecast
Issued by NWS

Home | Current Version | Previous Version | Text Only | Print | Product List | Glossary On
Versions: 1 2 3 4 5 6 7 8 9 10 11 12 13 14 15 16 17 18
444
FTUS43 KAPX 161123
TAFPLN
TAF
KPLN 161123Z 1612/1712 24008G17KT P6SM FEW250
     FM162300 23004KT P6SM FEW250
     FM170700 09004KT P6SM BKN120
     FM170900 09005KT P6SM OVC050
     FM171000 09005KT 3SM -SN OVC010=

USA.gov is the U.S. government's official web portal to all federal, state and local government web resources and services.